createdAt,value
2023-10-27T00:03:33.758Z,0
2023-10-27T00:08:40.123Z,0
2023-10-27T00:13:46.653Z,0
2023-10-27T00:18:52.124Z,0
2023-10-27T00:23:58.550Z,0
2023-10-27T00:29:04.963Z,0
2023-10-27T00:34:11.369Z,0
2023-10-27T00:39:17.885Z,0
2023-10-27T00:44:24.200Z,0
2023-10-27T00:49:30.623Z,0
2023-10-27T00:54:37.036Z,0
2023-10-27T00:59:43.442Z,0
2023-10-27T01:04:49.860Z,0
2023-10-27T01:09:56.258Z,0
2023-10-27T01:15:02.675Z,0
2023-10-27T01:20:09.075Z,0
2023-10-27T01:25:15.495Z,0
2023-10-27T01:30:21.902Z,0
2023-10-27T01:35:28.325Z,0
2023-10-27T01:40:34.819Z,0
2023-10-27T01:45:41.137Z,0
2023-10-27T01:50:47.579Z,0
2023-10-27T01:55:53.970Z,0
2023-10-27T02:01:00.376Z,0
2023-10-27T02:06:06.793Z,0
2023-10-27T02:11:13.191Z,0
2023-10-27T02:16:19.616Z,0
2023-10-27T02:21:26.025Z,0
2023-10-27T02:26:32.611Z,0
2023-10-27T02:31:38.058Z,0
2023-10-27T02:36:44.456Z,0
2023-10-27T02:41:50.872Z,0
2023-10-27T02:46:57.276Z,0
2023-10-27T02:52:03.698Z,0
2023-10-27T02:57:10.139Z,0
2023-10-27T03:02:16.517Z,0
2023-10-27T03:07:22.930Z,0
2023-10-27T03:12:29.342Z,0
2023-10-27T03:17:35.755Z,0
2023-10-27T03:22:42.166Z,0
2023-10-27T03:27:48.579Z,0
2023-10-27T03:32:54.986Z,0
2023-10-27T03:38:01.430Z,0
2023-10-27T03:43:07.856Z,0
2023-10-27T03:48:14.272Z,0
2023-10-27T03:53:20.704Z,0
2023-10-27T03:58:27.132Z,0
2023-10-27T04:03:33.563Z,0
2023-10-27T04:08:40.107Z,0
2023-10-27T04:13:46.408Z,0
2023-10-27T04:18:52.769Z,0
2023-10-27T04:23:59.264Z,0
2023-10-27T04:29:05.606Z,0
2023-10-27T04:34:12.023Z,0
2023-10-27T04:39:18.631Z,0
2023-10-27T04:44:24.223Z,0
2023-10-27T04:49:29.651Z,0
2023-10-27T04:54:36.061Z,0
2023-10-27T04:59:42.475Z,0
2023-10-27T05:09:55.312Z,0
2023-10-27T05:15:01.709Z,0
2023-10-27T05:20:08.137Z,0
2023-10-27T05:25:14.552Z,0
2023-10-27T05:30:21.008Z,0
2023-10-27T05:35:27.386Z,0
2023-10-27T05:40:33.844Z,0
2023-10-27T05:45:40.270Z,1
2023-10-27T05:50:46.452Z,1
2023-10-27T05:55:52.760Z,4
2023-10-27T06:00:59.068Z,10
2023-10-27T06:06:05.424Z,21
2023-10-27T06:11:11.697Z,41
2023-10-27T06:16:18.071Z,58
2023-10-27T06:21:24.276Z,91
2023-10-27T06:26:30.589Z,148
2023-10-27T06:31:36.905Z,208
2023-10-27T06:36:43.346Z,228
2023-10-27T06:41:49.608Z,255
2023-10-27T06:46:55.802Z,280
2023-10-27T06:52:02.173Z,337
2023-10-27T06:57:08.553Z,413
2023-10-27T07:02:14.308Z,418
2023-10-27T07:07:20.494Z,328
2023-10-27T07:12:26.594Z,260
2023-10-27T07:17:32.890Z,264
2023-10-27T07:22:39.199Z,292
2023-10-27T07:27:45.531Z,312
2023-10-27T07:32:51.827Z,310
2023-10-27T07:37:58.224Z,315
2023-10-27T07:43:04.421Z,312
2023-10-27T07:48:10.749Z,412
2023-10-27T07:53:17.034Z,551
2023-10-27T07:58:23.344Z,559
2023-10-27T08:03:29.648Z,508
2023-10-27T08:08:35.956Z,543
2023-10-27T08:13:42.523Z,631
2023-10-27T08:18:48.574Z,761
2023-10-27T08:23:54.869Z,941
2023-10-27T08:29:01.188Z,762
2023-10-27T08:34:07.486Z,607
2023-10-27T08:39:13.783Z,607
2023-10-27T08:44:20.094Z,620
2023-10-27T08:49:26.410Z,575
2023-10-27T08:54:32.712Z,624
2023-10-27T08:59:39.011Z,642
2023-10-27T09:04:45.332Z,860
2023-10-27T09:09:51.772Z,967
2023-10-27T09:14:57.141Z,892
2023-10-27T09:20:03.430Z,898
2023-10-27T09:25:09.724Z,845
2023-10-27T09:30:16.036Z,777
2023-10-27T09:35:22.346Z,725
2023-10-27T09:40:28.656Z,951
2023-10-27T09:45:34.963Z,1071
2023-10-27T09:50:41.410Z,1326
2023-10-27T09:55:47.560Z,1149
2023-10-27T10:00:53.872Z,713
2023-10-27T10:06:00.171Z,657
2023-10-27T10:11:06.480Z,723
2023-10-27T10:16:12.788Z,785
2023-10-27T10:21:19.094Z,842
2023-10-27T10:26:25.754Z,893
2023-10-27T10:31:31.703Z,790
2023-10-27T10:36:38.048Z,754
2023-10-27T10:41:44.320Z,764
2023-10-27T10:46:50.630Z,673
2023-10-27T10:51:56.930Z,532
2023-10-27T10:57:03.306Z,424
2023-10-27T11:02:09.807Z,312
2023-10-27T11:07:15.854Z,665
2023-10-27T11:12:22.157Z,584
2023-10-27T11:17:28.460Z,691
2023-10-27T11:22:34.843Z,393
2023-10-27T11:27:41.152Z,1184
2023-10-27T11:32:47.459Z,947
2023-10-27T11:37:53.755Z,721
2023-10-27T11:43:00.073Z,1051
2023-10-27T11:48:06.377Z,1087
2023-10-27T11:53:12.687Z,1144
2023-10-27T11:58:18.990Z,993
2023-10-27T12:03:25.289Z,834
2023-10-27T12:08:31.606Z,801
2023-10-27T12:13:37.907Z,711
2023-10-27T12:18:44.216Z,499
2023-10-27T12:23:50.525Z,1043
2023-10-27T12:28:56.957Z,992
2023-10-27T12:34:02.380Z,1119
2023-10-27T12:39:08.755Z,1509
2023-10-27T12:44:15.002Z,1487
2023-10-27T12:49:21.298Z,1355
2023-10-27T12:54:27.610Z,1325
2023-10-27T12:59:33.902Z,1129
2023-10-27T13:04:40.209Z,1151
2023-10-27T13:09:46.530Z,1040
2023-10-27T13:14:52.835Z,856
2023-10-27T13:19:59.156Z,651
2023-10-27T13:25:05.442Z,728
2023-10-27T13:30:11.903Z,670
2023-10-27T13:35:18.073Z,640
2023-10-27T13:40:24.357Z,494
2023-10-27T13:45:30.664Z,166
2023-10-27T13:50:36.978Z,523
2023-10-27T13:55:43.273Z,412
2023-10-27T14:00:49.770Z,294
2023-10-27T14:05:55.886Z,427
2023-10-27T14:11:02.204Z,225
2023-10-27T14:16:08.508Z,373
2023-10-27T14:21:14.815Z,331
2023-10-27T14:26:21.113Z,292
2023-10-27T14:31:27.471Z,314
2023-10-27T14:36:33.749Z,341
2023-10-27T14:41:40.318Z,341
2023-10-27T14:46:45.725Z,396
2023-10-27T14:51:51.152Z,366
2023-10-27T14:56:57.452Z,179
2023-10-27T15:02:03.753Z,114
2023-10-27T15:07:10.059Z,185
2023-10-27T15:12:16.370Z,284
2023-10-27T15:17:22.674Z,220
2023-10-27T15:22:28.979Z,171
2023-10-27T15:27:35.281Z,108
2023-10-27T15:32:41.586Z,126
2023-10-27T15:37:47.897Z,123
2023-10-27T15:42:54.206Z,87
2023-10-27T15:48:00.652Z,60
2023-10-27T15:53:06.902Z,38
2023-10-27T15:58:13.295Z,19
2023-10-27T16:03:19.432Z,19
2023-10-27T16:08:25.735Z,13
2023-10-27T16:13:32.038Z,7
2023-10-27T16:18:38.408Z,0
2023-10-27T16:23:44.815Z,0
2023-10-27T16:28:51.215Z,0
2023-10-27T16:33:57.644Z,0
2023-10-27T16:39:04.054Z,0
2023-10-27T16:44:10.469Z,0
2023-10-27T16:49:16.885Z,0
2023-10-27T16:54:23.301Z,0
2023-10-27T16:59:29.849Z,0
2023-10-27T17:04:35.324Z,0
2023-10-27T17:09:41.735Z,0
2023-10-27T17:14:48.196Z,0
2023-10-27T17:19:54.566Z,0
2023-10-27T17:25:00.988Z,0
2023-10-27T17:30:07.389Z,0
2023-10-27T17:35:13.809Z,0
2023-10-27T17:40:20.233Z,0
2023-10-27T17:45:26.627Z,0
2023-10-27T17:50:33.042Z,0
2023-10-27T17:55:39.458Z,0
2023-10-27T18:00:45.866Z,0
2023-10-27T18:05:52.282Z,0
2023-10-27T18:10:58.701Z,0
2023-10-27T18:16:05.108Z,0
2023-10-27T18:21:11.530Z,0
2023-10-27T18:26:17.950Z,0
2023-10-27T18:31:24.352Z,0
2023-10-27T18:36:30.786Z,0
2023-10-27T18:41:37.188Z,0
2023-10-27T18:46:43.613Z,0
2023-10-27T18:51:50.004Z,0
2023-10-27T18:56:56.417Z,0
2023-10-27T19:02:02.846Z,0
2023-10-27T19:07:09.246Z,0
2023-10-27T19:12:15.808Z,0
2023-10-27T19:17:21.275Z,0
2023-10-27T19:22:27.684Z,0
2023-10-27T19:27:34.102Z,0
2023-10-27T19:32:40.528Z,0
2023-10-27T19:37:46.933Z,0
2023-10-27T19:42:53.334Z,0
2023-10-27T19:47:59.767Z,0
2023-10-27T19:53:06.172Z,0
2023-10-27T19:58:12.588Z,0
2023-10-27T20:03:19.004Z,0
2023-10-27T20:08:25.408Z,0
2023-10-27T20:13:31.816Z,0
2023-10-27T20:18:38.237Z,0
2023-10-27T20:23:44.653Z,0
2023-10-27T20:28:51.086Z,0
2023-10-27T20:33:57.472Z,0
2023-10-27T20:39:03.905Z,0
2023-10-27T20:44:10.306Z,0
2023-10-27T20:49:16.718Z,0
2023-10-27T20:54:23.142Z,0
2023-10-27T20:59:29.553Z,0
2023-10-27T21:04:35.960Z,0
2023-10-27T21:09:42.371Z,0
2023-10-27T21:14:48.789Z,0
2023-10-27T21:19:55.211Z,0
2023-10-27T21:25:01.758Z,0
2023-10-27T21:30:07.364Z,0
2023-10-27T21:35:12.843Z,0
2023-10-27T21:40:19.244Z,0
2023-10-27T21:45:25.652Z,0
2023-10-27T21:50:32.086Z,0
2023-10-27T21:55:38.498Z,0
2023-10-27T22:00:44.904Z,0
2023-10-27T22:05:51.323Z,0
2023-10-27T22:10:57.735Z,0
2023-10-27T22:16:04.150Z,0
2023-10-27T22:21:10.559Z,0
2023-10-27T22:26:16.973Z,0
2023-10-27T22:31:23.384Z,0
2023-10-27T22:36:29.806Z,0
2023-10-27T22:41:36.230Z,0
2023-10-27T22:46:42.631Z,0
2023-10-27T22:51:49.046Z,0
2023-10-27T22:56:55.450Z,0
2023-10-27T23:02:01.876Z,0
2023-10-27T23:07:08.284Z,0
2023-10-27T23:12:14.693Z,0
2023-10-27T23:17:21.104Z,0
2023-10-27T23:22:27.520Z,0
2023-10-27T23:27:33.934Z,0
2023-10-27T23:32:40.367Z,0
2023-10-27T23:37:46.771Z,0
2023-10-27T23:42:53.321Z,0
2023-10-27T23:47:58.789Z,0
2023-10-27T23:53:05.204Z,0
2023-10-27T23:58:11.613Z,0
